Najran, Saudi Arabia
Current Conditions -  °F | °C
As of 1:00 AM on Thursday 27 Nov 2014 (Local Time) from OENG Reporting Station
Clear Clear  
Wind Chill: 68°   Ceiling: Unl
Heat Index: 68°   Visibility: 6mi
Dew Point: 39°   Wind: 0mph
Humidity: 35%   Direction: NA
Pressure: 30.06"   Gusts: NA
Location:  17.62°N, 44.42°E
Report Text: OENG 262200Z 00000KT CAVOK 20/04 Q1018 NOSIG
Loading
Personal Weather Stations






























Interactive Weather Map New forecast layout! Learn more

10-Day Weather Forecast

Advertisements
Track Severe Weather on mobile